createdAt,value
2022-12-13T00:51:39.653Z,61.58
2022-12-13T01:52:31.483Z,78.30
2022-12-13T01:55:43.237Z,74.35
2022-12-13T02:29:30.548Z,66.72
2022-12-13T02:32:44.722Z,66.78
2022-12-13T03:32:41.553Z,73.68
2022-12-13T03:47:50.529Z,74.13
2022-12-13T03:57:37.353Z,62.80
2022-12-13T04:00:53.356Z,69.20
2022-12-13T04:11:13.372Z,69.40
2022-12-13T04:14:22.322Z,65.00
2022-12-13T04:17:19.002Z,59.90
2022-12-13T04:20:05.770Z,59.38
2022-12-13T04:23:09.822Z,59.15
2022-12-13T04:26:24.758Z,62.38
2022-12-13T04:29:08.304Z,60.28
2022-12-13T04:32:26.831Z,65.45
2022-12-13T04:35:47.496Z,66.45
2022-12-13T04:38:29.771Z,57.55
2022-12-13T04:41:43.498Z,56.00
2022-12-13T04:44:46.245Z,62.65
2022-12-13T04:50:56.375Z,57.88
2022-12-13T04:57:31.524Z,47.85
2022-12-13T05:01:16.353Z,52.90
2022-12-13T05:03:33.798Z,49.45
2022-12-13T05:06:44.728Z,54.28
2022-12-13T05:09:30.243Z,53.70
2022-12-13T05:12:44.016Z,52.00
2022-12-13T05:15:35.820Z,57.45
2022-12-13T07:15:45.444Z,65.28
2022-12-13T07:19:35.621Z,63.00
2022-12-13T07:30:44.828Z,59.35
2022-12-13T07:56:04.483Z,73.38
2022-12-13T08:14:03.793Z,77.88
2022-12-13T09:42:01.101Z,45.17
2022-12-13T09:44:44.009Z,45.95
2022-12-13T09:47:23.985Z,45.55
2022-12-13T09:49:53.876Z,43.85
2022-12-13T09:52:26.032Z,45.10
2022-12-13T09:55:02.148Z,43.45
2022-12-13T09:57:34.373Z,42.10
2022-12-13T10:00:06.606Z,42.85
2022-12-13T10:02:45.625Z,42.53
2022-12-13T10:05:22.281Z,43.00
2022-12-13T10:07:55.967Z,44.53
2022-12-13T10:10:23.847Z,45.72
2022-12-13T10:12:59.358Z,41.80
2022-12-13T10:15:28.361Z,42.17
2022-12-13T10:17:56.683Z,41.20
2022-12-13T10:20:29.012Z,36.35
2022-12-13T10:25:50.734Z,36.08
2022-12-13T10:28:27.402Z,37.60
2022-12-13T10:30:56.182Z,37.90
2022-12-13T10:33:27.103Z,34.70
2022-12-13T10:36:06.882Z,37.42
2022-12-13T10:38:38.363Z,37.60
2022-12-13T10:41:30.899Z,37.73
2022-12-13T10:44:16.040Z,37.25
2022-12-13T10:46:50.121Z,31.95
2022-12-13T10:49:20.888Z,35.97
2022-12-13T10:51:50.359Z,35.88
2022-12-13T10:54:23.314Z,37.97
2022-12-13T10:56:53.998Z,32.88
2022-12-13T10:59:32.051Z,35.88
2022-12-13T11:02:01.746Z,34.42
2022-12-13T11:04:31.655Z,36.33
2022-12-13T11:07:01.228Z,37.42
2022-12-13T11:09:39.102Z,36.45
2022-12-13T11:12:15.226Z,32.40
2022-12-13T11:14:56.698Z,29.77
2022-12-13T11:17:27.550Z,33.45
2022-12-13T11:19:58.602Z,33.42
2022-12-13T11:22:29.678Z,33.65
2022-12-13T11:25:02.770Z,34.90
2022-12-13T11:27:48.107Z,35.50
2022-12-13T11:30:37.453Z,30.52
2022-12-13T11:33:15.631Z,30.60
2022-12-13T11:35:58.865Z,31.50
2022-12-13T11:38:34.827Z,30.77
2022-12-13T11:41:12.743Z,33.92
2022-12-13T11:44:04.673Z,35.10
2022-12-13T11:46:42.568Z,34.13
2022-12-13T11:49:20.453Z,31.60
2022-12-13T11:51:53.252Z,35.70
2022-12-13T11:54:30.756Z,36.10
2022-12-13T11:57:01.125Z,33.63
2022-12-13T11:59:42.319Z,34.90
2022-12-13T12:02:20.662Z,34.42
2022-12-13T12:04:58.141Z,32.28
2022-12-13T12:07:35.719Z,34.03
2022-12-13T12:10:16.622Z,33.10
2022-12-13T12:12:51.725Z,36.95
2022-12-13T12:15:27.104Z,60.20
2022-12-13T12:17:57.218Z,32.13
2022-12-13T12:20:48.350Z,32.25
2022-12-13T12:23:24.410Z,39.53
2022-12-13T12:25:56.958Z,37.22
2022-12-13T12:28:35.899Z,44.22
2022-12-13T12:31:20.130Z,35.63
2022-12-13T12:34:07.286Z,38.17
2022-12-13T12:36:50.416Z,33.63
2022-12-13T12:39:40.551Z,58.47
2022-12-13T12:42:26.880Z,41.10
2022-12-13T12:45:54.756Z,51.15
2022-12-13T12:48:52.003Z,34.83
2022-12-13T12:51:22.410Z,34.42
2022-12-13T12:53:55.840Z,38.53
2022-12-13T12:56:39.893Z,42.60
2022-12-13T12:59:16.509Z,38.63
2022-12-13T13:01:56.295Z,40.63
2022-12-13T13:04:30.897Z,40.28
2022-12-13T13:07:23.367Z,40.05
2022-12-13T13:09:54.700Z,43.65
2022-12-13T13:12:28.966Z,42.73
2022-12-13T13:14:59.008Z,42.80
2022-12-13T13:17:53.639Z,39.30
2022-12-13T13:20:25.817Z,44.42
2022-12-13T13:23:17.478Z,48.17
2022-12-13T13:28:44.434Z,47.72
2022-12-13T13:31:12.823Z,50.80
2022-12-13T13:33:47.198Z,48.55
2022-12-13T13:36:47.876Z,47.00
2022-12-13T13:39:37.369Z,48.00
2022-12-13T13:42:19.283Z,45.85
2022-12-13T13:45:19.173Z,46.97
2022-12-13T13:47:58.895Z,46.72
2022-12-13T13:51:01.726Z,52.05
2022-12-13T13:54:01.243Z,45.88
2022-12-13T13:56:40.298Z,49.10
2022-12-13T13:59:42.286Z,47.92
2022-12-13T14:03:09.084Z,45.00
2022-12-13T14:06:29.027Z,42.92
2022-12-13T14:09:22.774Z,45.03
2022-12-13T14:12:43.161Z,41.85
2022-12-13T14:15:39.497Z,39.53
2022-12-13T14:18:46.015Z,43.63
2022-12-13T14:21:25.528Z,41.38
2022-12-13T14:24:09.426Z,44.15
2022-12-13T14:26:52.580Z,46.70
2022-12-13T14:29:30.655Z,48.08
2022-12-13T14:31:59.508Z,42.13
2022-12-13T14:34:29.541Z,42.20
2022-12-13T14:36:59.410Z,43.75
2022-12-13T14:39:29.591Z,44.70
2022-12-13T14:41:59.457Z,133.35
2022-12-13T14:44:31.426Z,49.72
2022-12-13T14:47:02.009Z,43.40
2022-12-13T14:56:28.773Z,42.75
2022-12-13T14:58:59.116Z,42.13
2022-12-13T15:01:31.442Z,47.55
2022-12-13T15:04:20.542Z,45.92
2022-12-13T15:06:51.784Z,48.20
2022-12-13T15:09:19.979Z,50.33
2022-12-13T15:11:51.941Z,51.70
2022-12-13T15:14:22.677Z,47.88
2022-12-13T15:16:54.627Z,32.20
2022-12-13T15:19:31.060Z,47.08
2022-12-13T15:22:03.907Z,44.05
2022-12-13T15:24:35.407Z,49.58
2022-12-13T15:27:04.474Z,45.73
2022-12-13T15:29:35.481Z,44.95
2022-12-13T15:32:05.736Z,48.25
2022-12-13T15:34:36.470Z,47.63
2022-12-13T15:37:07.792Z,48.40
2022-12-13T15:39:58.725Z,46.33
2022-12-13T15:42:32.345Z,43.55
2022-12-13T15:45:02.528Z,44.05
2022-12-13T15:47:32.850Z,44.28
2022-12-13T15:50:02.888Z,46.10
2022-12-13T15:52:35.557Z,46.50
2022-12-13T15:55:28.846Z,45.80
2022-12-13T15:57:58.736Z,50.50
2022-12-13T16:00:32.301Z,47.40
2022-12-13T16:03:08.935Z,44.38
2022-12-13T16:05:40.018Z,46.50
2022-12-13T16:08:17.468Z,48.42
2022-12-13T16:10:48.635Z,51.72
2022-12-13T16:13:26.695Z,56.13
2022-12-13T16:16:00.488Z,54.78
2022-12-13T16:18:46.643Z,52.17
2022-12-13T16:21:14.695Z,49.45
2022-12-13T16:23:48.711Z,53.28
2022-12-13T16:26:22.462Z,48.60
2022-12-13T16:28:50.476Z,48.67
2022-12-13T16:31:21.065Z,48.42
2022-12-13T16:33:50.785Z,53.03
2022-12-13T16:36:18.850Z,54.42
2022-12-13T16:38:46.922Z,53.72
2022-12-13T16:41:16.421Z,50.72
2022-12-13T16:43:52.822Z,47.17
2022-12-13T16:47:12.341Z,48.47
2022-12-13T16:49:20.581Z,48.58
2022-12-13T16:51:49.286Z,50.67
2022-12-13T16:54:18.992Z,46.88
2022-12-13T16:56:47.086Z,43.33
2022-12-13T16:59:16.085Z,46.88
2022-12-13T17:01:45.487Z,46.80
2022-12-13T17:04:21.003Z,47.67
2022-12-13T17:06:51.206Z,48.20
2022-12-13T17:09:23.465Z,45.05
2022-12-13T17:11:51.275Z,61.78
2022-12-13T17:14:19.319Z,57.50
2022-12-13T17:16:47.481Z,61.25
2022-12-13T17:19:17.523Z,57.97
2022-12-13T17:21:45.688Z,65.25
2022-12-13T17:24:13.709Z,60.45
2022-12-13T17:26:53.982Z,59.15
2022-12-13T17:29:22.913Z,64.70
2022-12-13T17:31:53.508Z,55.65
2022-12-13T17:34:23.114Z,154.18
2022-12-13T17:36:51.252Z,53.05
2022-12-13T17:39:19.763Z,54.55
2022-12-13T17:41:54.747Z,46.22
2022-12-13T17:44:24.506Z,41.05
2022-12-13T17:46:55.099Z,45.50
2022-12-13T17:49:25.439Z,58.10
2022-12-13T17:51:54.508Z,48.03
2022-12-13T17:54:23.713Z,48.65
2022-12-13T17:56:51.892Z,43.78
2022-12-13T17:59:20.099Z,42.80
2022-12-13T18:01:48.365Z,40.55
2022-12-13T18:04:16.824Z,48.00
2022-12-13T18:06:46.465Z,49.58
2022-12-13T18:09:15.034Z,55.53
2022-12-13T18:11:43.397Z,54.03
2022-12-13T18:14:11.445Z,51.60
2022-12-13T18:16:39.682Z,48.17
2022-12-13T18:19:09.455Z,48.08
2022-12-13T18:21:37.947Z,47.55
2022-12-13T18:24:08.147Z,43.53
2022-12-13T18:26:36.199Z,48.88
2022-12-13T18:29:04.947Z,51.38
2022-12-13T18:31:33.312Z,46.58
2022-12-13T18:34:01.609Z,44.90
2022-12-13T18:36:30.031Z,72.05
2022-12-13T18:38:58.175Z,45.47
2022-12-13T18:41:29.152Z,49.75
2022-12-13T18:43:59.492Z,45.60
2022-12-13T18:46:29.158Z,46.13
2022-12-13T18:48:57.867Z,41.58
2022-12-13T18:51:26.772Z,45.10
2022-12-13T18:53:56.932Z,49.50
2022-12-13T18:56:28.938Z,47.88
2022-12-13T18:58:59.594Z,45.10
2022-12-13T19:01:33.257Z,47.53
2022-12-13T19:04:04.165Z,46.47
2022-12-13T19:06:32.114Z,41.13
2022-12-13T19:10:06.882Z,48.40
2022-12-13T19:12:35.123Z,52.80
2022-12-13T19:15:05.123Z,46.78
2022-12-13T19:17:34.187Z,45.45
2022-12-13T19:20:02.378Z,44.22
2022-12-13T19:22:32.989Z,40.28
2022-12-13T19:25:01.090Z,44.33
2022-12-13T19:27:31.132Z,44.42
2022-12-13T19:29:59.501Z,43.15
2022-12-13T19:32:29.821Z,43.72
2022-12-13T19:34:58.157Z,45.20
2022-12-13T19:37:26.127Z,44.60
2022-12-13T19:39:55.758Z,48.97
2022-12-13T19:42:24.369Z,59.78
2022-12-13T19:44:53.506Z,52.70
2022-12-13T19:47:21.636Z,59.42
2022-12-13T19:49:51.749Z,54.97
2022-12-13T19:52:20.150Z,59.72
2022-12-13T19:54:48.137Z,44.22
2022-12-13T19:57:17.390Z,48.13
2022-12-13T19:59:45.937Z,42.80
2022-12-13T20:02:15.531Z,49.13
2022-12-13T20:04:44.789Z,52.95
2022-12-13T20:07:14.161Z,51.13
2022-12-13T20:09:42.370Z,56.95
2022-12-13T20:12:10.234Z,65.28
2022-12-13T20:14:38.303Z,51.53
2022-12-13T20:17:06.580Z,60.83
2022-12-13T20:19:37.286Z,86.13
2022-12-13T20:22:05.626Z,54.03
2022-12-13T20:24:45.868Z,53.95
2022-12-13T20:27:30.377Z,45.13
2022-12-13T20:29:58.595Z,55.53
2022-12-13T20:32:28.924Z,51.88
2022-12-13T20:35:13.313Z,94.63
2022-12-13T20:37:59.789Z,47.47
2022-12-13T20:40:29.574Z,108.43
2022-12-13T20:42:57.679Z,111.03
2022-12-13T20:45:34.949Z,82.10
2022-12-13T20:48:08.757Z,56.50
2022-12-13T20:50:40.288Z,43.40
2022-12-13T20:53:09.770Z,40.40
2022-12-13T20:55:39.365Z,61.50
2022-12-13T20:58:07.366Z,39.60
2022-12-13T21:00:37.585Z,38.33
2022-12-13T21:03:23.532Z,37.13
2022-12-13T21:05:53.802Z,41.70
2022-12-13T21:08:38.879Z,43.35
2022-12-13T21:11:26.919Z,39.35
2022-12-13T21:14:25.960Z,36.60
2022-12-13T21:17:15.163Z,33.17
2022-12-13T21:21:02.383Z,32.42
2022-12-13T21:30:33.144Z,42.42
2022-12-13T21:33:00.997Z,39.75
2022-12-13T21:35:28.866Z,40.67
2022-12-13T21:38:02.153Z,38.40
2022-12-13T21:40:32.941Z,38.10
2022-12-13T21:43:00.710Z,35.78
2022-12-13T21:45:28.586Z,34.65
2022-12-13T21:47:57.987Z,36.03
2022-12-13T21:50:25.791Z,35.47
2022-12-13T21:52:53.617Z,34.53
2022-12-13T21:58:24.654Z,49.13
2022-12-13T22:00:52.774Z,34.63
2022-12-13T22:03:22.077Z,33.60
2022-12-13T22:05:49.848Z,34.00
2022-12-13T22:08:17.710Z,29.30
2022-12-13T22:10:59.370Z,29.65
2022-12-13T22:13:48.423Z,32.50
2022-12-13T22:16:36.274Z,30.50
2022-12-13T22:19:05.725Z,31.17
2022-12-13T22:21:33.879Z,30.40
2022-12-13T22:24:01.766Z,31.30
2022-12-13T22:26:29.709Z,33.45
2022-12-13T22:29:00.710Z,33.08
2022-12-13T22:31:30.066Z,31.52
2022-12-13T22:33:58.490Z,33.10
2022-12-13T22:36:27.856Z,31.10
2022-12-13T22:38:55.706Z,36.47
2022-12-13T22:41:23.606Z,30.70
2022-12-13T22:43:51.586Z,32.80
2022-12-13T22:46:20.951Z,29.52
2022-12-13T22:48:51.755Z,29.92
2022-12-13T22:51:20.531Z,30.42
2022-12-13T22:53:51.480Z,29.85
2022-12-13T22:56:23.102Z,30.73
2022-12-13T22:58:54.325Z,26.13
2022-12-13T23:01:25.178Z,29.20
2022-12-13T23:03:53.660Z,26.58
2022-12-13T23:06:24.444Z,24.88
2022-12-13T23:08:56.292Z,28.05
2022-12-13T23:11:42.424Z,25.38
2022-12-13T23:14:13.149Z,25.48
2022-12-13T23:16:42.501Z,29.75
2022-12-13T23:19:40.511Z,30.38
2022-12-13T23:22:00.519Z,26.27
2022-12-13T23:24:30.026Z,26.80
2022-12-13T23:26:58.060Z,26.98
2022-12-13T23:29:26.160Z,25.02
2022-12-13T23:31:54.047Z,22.58
2022-12-13T23:34:22.016Z,26.05
2022-12-13T23:36:50.024Z,25.02
2022-12-13T23:39:18.116Z,23.63
2022-12-13T23:41:47.780Z,25.08
2022-12-13T23:44:15.639Z,27.40
2022-12-13T23:46:48.196Z,22.55
2022-12-13T23:49:17.162Z,23.33
2022-12-13T23:51:45.290Z,22.00
2022-12-13T23:54:17.931Z,23.27
2022-12-13T23:56:47.601Z,24.92
2022-12-13T23:59:15.901Z,22.73
